Elmora, New Jersey
Current Conditions -  °F | °C
As of 1:55 PM on Friday 31 Oct 2014 (Local Time) from KLDJ Reporting Station
Overcast Overcast  
Wind Chill: 55°   Ceiling: 4600
Heat Index: 55°   Visibility: 10mi
Dew Point: 39°   Wind: 6mph
Humidity: 53%   Direction: 20°NNE
Pressure: 29.95"   Gusts: NA
Location:  40.6531°N, 74.2169°W
Report Text: KLDJ 311755Z AUTO 02005KT 10SM OVC046 13/04 A2995 RMK AO2 T01300037 10130 20093
Loading
Personal Weather Stations






























Interactive Weather Map New forecast layout! Learn more

10-Day Weather Forecast

Advertisements
Track Severe Weather on mobile